Hovedside
METAR-TAF:

METAR-TAF

Lufthavner :

Namsos lufthavn

Namsos, Norge

breddegrad: 64-28N, lengdegrad: 011-35E, høyde over havet: 0 m

Gjeldene værobservasjon

Denne rapporten ble laget for 49 minutter siden, klokken 16:20 UTC
Vind 8 kt fra Nordøst, skiftende mellom Nord og Øst-nordøst
Temperatur 15°C
Luftfuktighet 67%
Trykk 1015 hPa
Sikt 10 km eller mer
Få skyer i en høyde av 2900 ft
Brutte skyer i en høyde av 4900 ft

METAR: ENNM 241620Z 04008KT 350V060 9999 FEW029 BKN049 15/09 Q1015

Tid: 19:09 (17:09 UTC)

Varsel

Denne rapporten ble laget for 3 timer og 9 minutter siden, klokken 14:00 UTC
Varsel gyldig fra 24. klokken 15 UTC til 24. klokken 21 UTC
Vind 3 kt fra skiftende retning
Sikt 10 km eller mer
Få skyer i en høyde av 4000 ft
Brutte skyer i en høyde av 6000 ft

TAF: ENNM 241400Z 2415/2421 VRB03KT 9999 FEW040 BKN060

Værobservasjoner og værvarsel for over 4000 flyplasser (METAR- og TAF-rapporter).

Tilgjengelige stasjoner er representert av de røde og gule prikkene på kartet.

Hold musepekeren over prikken for å se navnet på stasjonen.

Klikk så for å se værobservasjoner og -varsler.

For å forandre kartet kan du klikke på den grønne knappen med svart kryss for å zoome inn, på den grønne knappen med strek for å zoome ut, eller på de grønne pilene for å se tilstøtende kart.


METAR-TAF: